createdAt,value
2022-09-23T00:00:14.803Z,84.77
2022-09-23T00:02:19.566Z,84.67
2022-09-23T00:04:27.316Z,85.11
2022-09-23T00:06:33.065Z,85.14
2022-09-23T00:08:38.149Z,85.37
2022-09-23T00:10:42.746Z,85.23
2022-09-23T00:12:47.415Z,85.33
2022-09-23T00:14:52.386Z,85.44
2022-09-23T00:16:57.120Z,85.17
2022-09-23T00:19:02.063Z,85.51
2022-09-23T00:21:08.465Z,85.33
2022-09-23T00:23:13.157Z,85.74
2022-09-23T00:25:17.978Z,85.29
2022-09-23T00:27:22.644Z,85.35
2022-09-23T00:29:27.283Z,85.27
2022-09-23T00:31:31.936Z,85.27
2022-09-23T00:33:36.817Z,85.32
2022-09-23T00:35:41.554Z,85.40
2022-09-23T00:37:49.135Z,85.55
2022-09-23T00:39:53.883Z,85.73
2022-09-23T00:41:58.566Z,85.90
2022-09-23T00:44:17.390Z,86.17
2022-09-23T00:46:35.301Z,86.44
2022-09-23T00:48:43.133Z,86.70
2022-09-23T00:50:52.589Z,87.10
2022-09-23T00:52:59.855Z,86.96
2022-09-23T00:55:11.208Z,86.99
2022-09-23T00:57:18.646Z,87.18
2022-09-23T00:59:24.657Z,87.26
2022-09-23T01:01:29.485Z,87.19
2022-09-23T01:03:34.204Z,86.82
2022-09-23T01:05:39.440Z,86.75
2022-09-23T01:07:45.486Z,86.74
2022-09-23T01:09:50.960Z,86.73
2022-09-23T01:12:08.862Z,86.63
2022-09-23T01:14:29.743Z,86.82
2022-09-23T01:16:43.605Z,86.63
2022-09-23T01:18:56.134Z,86.74
2022-09-23T01:21:15.320Z,86.69
2022-09-23T01:23:55.273Z,86.78
2022-09-23T01:26:14.482Z,86.98
2022-09-23T01:28:33.281Z,86.79
2022-09-23T01:30:45.199Z,87.02
2022-09-23T01:33:05.310Z,87.14
2022-09-23T01:35:20.020Z,87.19
2022-09-23T01:37:31.862Z,86.98
2022-09-23T01:39:42.041Z,87.12
2022-09-23T01:41:55.983Z,87.28
2022-09-23T01:44:05.503Z,87.35
2022-09-23T01:46:17.599Z,87.42
2022-09-23T01:48:26.121Z,87.51
2022-09-23T01:50:36.664Z,87.60
2022-09-23T01:52:46.083Z,87.69
2022-09-23T01:54:57.934Z,87.89
2022-09-23T01:57:07.045Z,87.70
2022-09-23T01:59:18.485Z,88.03
2022-09-23T02:01:33.083Z,88.04
2022-09-23T02:03:42.584Z,88.12
2022-09-23T02:05:51.871Z,88.32
2022-09-23T02:08:01.246Z,88.41
2022-09-23T02:10:12.033Z,88.50
2022-09-23T02:12:20.363Z,88.65
2022-09-23T02:14:30.614Z,88.44
2022-09-23T02:16:39.738Z,88.39
2022-09-23T02:18:49.846Z,88.51
2022-09-23T02:21:00.214Z,88.38
2022-09-23T02:23:10.902Z,88.43
2022-09-23T02:25:16.159Z,88.43
2022-09-23T02:27:29.700Z,88.07
2022-09-23T02:29:42.868Z,87.94
2022-09-23T02:31:56.761Z,88.02
2022-09-23T02:34:09.614Z,88.08
2022-09-23T02:36:23.613Z,88.11
2022-09-23T02:38:33.618Z,88.15
2022-09-23T02:40:41.031Z,88.01
2022-09-23T02:43:00.669Z,88.08
2022-09-23T02:45:09.042Z,88.04
2022-09-23T02:47:13.702Z,88.01
2022-09-23T02:49:22.176Z,88.06
2022-09-23T02:51:27.400Z,88.30
2022-09-23T02:53:33.436Z,88.48
2022-09-23T02:55:38.961Z,88.32
2022-09-23T02:57:43.814Z,88.64
2022-09-23T02:59:48.803Z,89.00
2022-09-23T03:02:12.207Z,88.98
2022-09-23T03:04:27.849Z,89.26
2022-09-23T03:06:39.788Z,89.10
2022-09-23T03:08:51.165Z,89.21
2022-09-23T03:11:00.248Z,89.18
2022-09-23T03:13:16.056Z,89.33
2022-09-23T03:15:26.917Z,89.40
2022-09-23T03:17:36.811Z,89.62
2022-09-23T03:19:48.734Z,89.70
2022-09-23T03:22:00.981Z,89.82
2022-09-23T03:24:09.357Z,89.73
2022-09-23T03:26:19.427Z,89.69
2022-09-23T03:28:28.845Z,89.76
2022-09-23T03:30:35.278Z,89.92
2022-09-23T03:32:42.921Z,89.95
2022-09-23T03:34:51.442Z,90.18
2022-09-23T03:37:03.110Z,90.79
2022-09-23T03:39:12.731Z,90.68
2022-09-23T03:41:22.095Z,90.79
2022-09-23T03:43:27.128Z,90.66
2022-09-23T03:45:34.159Z,91.11
2022-09-23T03:47:39.216Z,90.97
2022-09-23T03:49:46.343Z,91.00
2022-09-23T03:51:51.098Z,90.86
2022-09-23T03:53:55.706Z,91.02
2022-09-23T03:56:00.465Z,91.15
2022-09-23T03:58:05.179Z,90.92
2022-09-23T04:00:12.805Z,91.09
2022-09-23T04:02:17.811Z,91.16
2022-09-23T04:04:22.531Z,90.91
2022-09-23T04:06:27.152Z,91.23
2022-09-23T04:08:31.777Z,90.93
2022-09-23T04:10:40.586Z,90.88
2022-09-23T04:12:45.182Z,90.61
2022-09-23T04:14:49.873Z,90.75
2022-09-23T04:16:54.534Z,90.59
2022-09-23T04:18:59.294Z,90.45
2022-09-23T04:21:04.221Z,90.28
2022-09-23T04:23:08.874Z,90.45
2022-09-23T04:25:13.693Z,90.61
2022-09-23T04:27:19.620Z,90.32
2022-09-23T04:29:25.729Z,90.76
2022-09-23T04:31:30.605Z,90.65
2022-09-23T04:33:35.335Z,90.37
2022-09-23T04:35:40.605Z,90.51
2022-09-23T04:37:47.505Z,90.18
2022-09-23T04:39:52.189Z,89.85
2022-09-23T04:41:56.865Z,89.64
2022-09-23T04:44:05.194Z,89.69
2022-09-23T04:46:12.137Z,89.67
2022-09-23T04:48:16.799Z,89.44
2022-09-23T04:50:21.509Z,89.33
2022-09-23T04:52:26.208Z,89.21
2022-09-23T04:54:31.362Z,89.00
2022-09-23T04:56:36.080Z,88.99
2022-09-23T04:58:43.151Z,89.06
2022-09-23T05:00:47.927Z,89.15
2022-09-23T05:02:52.702Z,88.93
2022-09-23T05:04:57.432Z,88.92
2022-09-23T05:07:03.412Z,88.66
2022-09-23T05:09:10.410Z,88.48
2022-09-23T05:11:15.079Z,89.34
2022-09-23T05:13:19.693Z,88.98
2022-09-23T05:15:24.380Z,88.77
2022-09-23T05:17:29.022Z,88.82
2022-09-23T05:19:33.669Z,88.60
2022-09-23T05:21:38.302Z,88.47
2022-09-23T05:23:47.303Z,88.63
2022-09-23T05:25:58.629Z,88.68
2022-09-23T05:28:03.488Z,88.62
2022-09-23T05:30:10.829Z,88.59
2022-09-23T05:32:16.840Z,88.45
2022-09-23T05:34:21.442Z,88.53
2022-09-23T05:36:27.720Z,88.63
2022-09-23T05:38:34.613Z,89.03
2022-09-23T05:40:39.372Z,89.21
2022-09-23T05:42:43.986Z,89.32
2022-09-23T05:44:48.607Z,89.49
2022-09-23T05:46:53.465Z,89.14
2022-09-23T05:49:02.478Z,88.95
2022-09-23T05:51:09.744Z,88.54
2022-09-23T05:53:14.406Z,88.59
2022-09-23T05:55:19.189Z,88.57
2022-09-23T05:57:23.826Z,88.23
2022-09-23T05:59:28.476Z,88.46
2022-09-23T06:01:36.072Z,88.44
2022-09-23T06:03:41.141Z,88.14
2022-09-23T06:05:46.091Z,88.00
2022-09-23T06:07:50.700Z,88.20
2022-09-23T06:09:55.657Z,88.15
2022-09-23T06:12:00.385Z,88.21
2022-09-23T06:14:05.909Z,87.92
2022-09-23T06:16:12.819Z,88.03
2022-09-23T06:18:17.516Z,88.13
2022-09-23T06:20:22.171Z,87.96
2022-09-23T06:22:29.477Z,87.74
2022-09-23T06:24:35.469Z,87.53
2022-09-23T06:26:40.421Z,87.58
2022-09-23T06:28:45.745Z,87.68
2022-09-23T06:30:50.865Z,89.62
2022-09-23T06:32:57.204Z,89.35
2022-09-23T06:35:01.829Z,88.05
2022-09-23T06:37:18.286Z,87.60
2022-09-23T06:39:24.813Z,86.95
2022-09-23T06:41:29.526Z,87.52
2022-09-23T06:43:35.759Z,86.98
2022-09-23T06:45:40.515Z,86.91
2022-09-23T06:47:46.590Z,86.47
2022-09-23T06:49:51.271Z,86.59
2022-09-23T06:51:55.915Z,86.77
2022-09-23T06:54:00.608Z,86.58
2022-09-23T06:56:07.724Z,86.10
2022-09-23T06:58:12.454Z,85.60
2022-09-23T07:00:17.579Z,85.69
2022-09-23T07:02:22.316Z,85.80
2022-09-23T07:04:29.320Z,85.88
2022-09-23T07:06:34.206Z,85.38
2022-09-23T07:08:39.017Z,85.11
2022-09-23T07:10:50.497Z,84.76
2022-09-23T07:12:55.211Z,84.64
2022-09-23T07:15:00.005Z,84.12
2022-09-23T07:17:04.806Z,84.12
2022-09-23T07:19:09.496Z,84.33
2022-09-23T07:21:16.314Z,83.76
2022-09-23T07:23:21.427Z,83.19
2022-09-23T07:25:26.246Z,82.93
2022-09-23T07:27:31.068Z,82.98
2022-09-23T07:29:46.445Z,82.57
2022-09-23T07:31:58.900Z,82.60
2022-09-23T07:34:09.707Z,82.35
2022-09-23T07:36:19.046Z,81.41
2022-09-23T07:38:26.572Z,80.96
2022-09-23T07:40:31.356Z,80.72
2022-09-23T07:42:36.071Z,80.11
2022-09-23T07:44:40.915Z,79.17
2022-09-23T07:46:45.769Z,79.35
2022-09-23T07:48:51.918Z,79.42
2022-09-23T07:50:56.642Z,79.25
2022-09-23T07:53:01.349Z,78.79
2022-09-23T07:55:07.595Z,78.68
2022-09-23T07:57:12.393Z,78.55
2022-09-23T07:59:18.533Z,78.40
2022-09-23T08:01:23.307Z,78.60
2022-09-23T08:03:27.980Z,78.22
2022-09-23T08:05:32.614Z,77.12
2022-09-23T08:07:37.405Z,77.15
2022-09-23T08:09:44.219Z,76.78
2022-09-23T08:11:49.693Z,75.55
2022-09-23T08:13:54.564Z,75.25
2022-09-23T08:15:59.354Z,75.20
2022-09-23T08:18:04.349Z,75.25
2022-09-23T08:20:10.835Z,73.70
2022-09-23T08:22:15.546Z,73.73
2022-09-23T08:24:21.621Z,73.92
2022-09-23T08:26:26.796Z,72.74
2022-09-23T08:28:32.698Z,73.50
2022-09-23T08:30:38.874Z,73.30
2022-09-23T08:32:43.592Z,73.00
2022-09-23T08:34:48.229Z,72.00
2022-09-23T08:36:52.916Z,70.62
2022-09-23T08:38:58.088Z,71.49
2022-09-23T08:41:11.576Z,71.99
2022-09-23T08:43:25.109Z,71.54
2022-09-23T08:45:29.931Z,70.47
2022-09-23T08:47:47.147Z,71.06
2022-09-23T08:50:02.883Z,71.03
2022-09-23T08:52:16.667Z,71.10
2022-09-23T08:54:21.535Z,70.76
2022-09-23T08:56:27.647Z,70.87
2022-09-23T08:58:44.235Z,70.69
2022-09-23T09:00:59.748Z,69.82
2022-09-23T09:03:14.217Z,70.16
2022-09-23T09:05:26.160Z,70.21
2022-09-23T09:07:37.361Z,69.41
2022-09-23T09:09:47.861Z,69.41
2022-09-23T09:11:56.939Z,68.69
2022-09-23T09:14:13.013Z,68.50
2022-09-23T09:16:58.825Z,68.28
2022-09-23T09:19:08.661Z,67.61
2022-09-23T09:21:15.124Z,67.28
2022-09-23T09:23:23.643Z,67.50
2022-09-23T09:25:39.956Z,67.28
2022-09-23T09:27:45.381Z,66.55
2022-09-23T09:29:54.010Z,66.68
2022-09-23T09:31:59.464Z,66.55
2022-09-23T09:34:10.823Z,66.43
2022-09-23T09:36:27.018Z,66.82
2022-09-23T09:38:31.732Z,66.02
2022-09-23T09:40:41.467Z,66.03
2022-09-23T09:42:48.638Z,66.36
2022-09-23T09:44:56.635Z,66.42
2022-09-23T09:47:19.633Z,65.58
2022-09-23T09:49:34.736Z,65.06
2022-09-23T09:51:43.002Z,64.45
2022-09-23T09:53:50.698Z,62.97
2022-09-23T09:56:05.796Z,62.68
2022-09-23T09:58:14.320Z,61.98
2022-09-23T10:00:35.197Z,62.72
2022-09-23T10:02:42.819Z,62.69
2022-09-23T10:04:53.994Z,61.50
2022-09-23T10:07:12.152Z,60.77
2022-09-23T10:09:18.770Z,61.24
2022-09-23T10:11:23.492Z,61.73
2022-09-23T10:13:29.350Z,61.52
2022-09-23T10:15:46.679Z,60.60
2022-09-23T10:17:52.500Z,60.44
2022-09-23T10:19:59.864Z,60.12
2022-09-23T10:22:15.474Z,60.39
2022-09-23T10:24:25.854Z,59.79
2022-09-23T10:26:33.038Z,58.93
2022-09-23T10:28:48.220Z,59.23
2022-09-23T10:31:06.017Z,59.08
2022-09-23T10:33:27.959Z,58.70
2022-09-23T10:35:35.759Z,59.44
2022-09-23T10:37:43.084Z,59.60
2022-09-23T10:39:48.006Z,59.22
2022-09-23T10:42:03.302Z,59.20
2022-09-23T10:44:27.561Z,59.64
2022-09-23T10:46:36.604Z,58.70
2022-09-23T10:48:51.825Z,58.18
2022-09-23T10:50:59.479Z,57.80
2022-09-23T10:53:15.030Z,57.20
2022-09-23T10:55:33.901Z,56.85
2022-09-23T10:57:50.654Z,56.57
2022-09-23T11:00:02.436Z,55.89
2022-09-23T11:02:27.148Z,55.49
2022-09-23T11:05:01.351Z,55.76
2022-09-23T11:07:20.958Z,55.79
2022-09-23T11:09:39.219Z,54.67
2022-09-23T11:11:59.974Z,55.19
2022-09-23T11:14:17.825Z,54.95
2022-09-23T11:16:35.503Z,54.81
2022-09-23T11:19:05.513Z,55.50
2022-09-23T11:21:30.642Z,55.58
2022-09-23T11:23:57.545Z,55.92
2022-09-23T11:26:10.537Z,55.96
2022-09-23T11:28:33.144Z,55.75
2022-09-23T11:30:47.430Z,54.34
2022-09-23T11:33:14.679Z,54.43
2022-09-23T11:35:24.195Z,54.31
2022-09-23T11:37:34.138Z,53.93
2022-09-23T11:39:45.018Z,54.52
2022-09-23T11:41:53.016Z,53.14
2022-09-23T11:44:03.328Z,52.03
2022-09-23T11:46:15.536Z,53.35
2022-09-23T11:48:26.695Z,52.92
2022-09-23T11:50:36.793Z,51.54
2022-09-23T11:52:45.902Z,50.98
2022-09-23T11:54:55.934Z,49.80
2022-09-23T11:57:05.596Z,51.24
2022-09-23T11:59:15.586Z,51.38
2022-09-23T12:01:35.584Z,51.17
2022-09-23T12:03:51.948Z,50.23
2022-09-23T12:06:02.864Z,50.97
2022-09-23T12:08:17.258Z,50.06
2022-09-23T12:10:23.822Z,48.82
2022-09-23T12:12:35.342Z,47.98
2022-09-23T12:14:59.386Z,48.33
2022-09-23T12:17:20.729Z,48.72
2022-09-23T12:19:39.014Z,48.91
2022-09-23T12:21:59.370Z,48.71
2022-09-23T12:24:22.571Z,48.77
2022-09-23T12:26:28.736Z,48.58
2022-09-23T12:28:37.773Z,48.60
2022-09-23T12:30:43.465Z,48.56
2022-09-23T12:32:48.218Z,47.60
2022-09-23T12:34:53.983Z,47.68
2022-09-23T12:37:04.617Z,47.00
2022-09-23T12:39:17.816Z,46.67
2022-09-23T12:41:28.872Z,46.40
2022-09-23T12:43:35.349Z,45.99
2022-09-23T12:45:40.990Z,46.53
2022-09-23T12:47:45.822Z,46.47
2022-09-23T12:49:51.129Z,46.44
2022-09-23T12:52:26.749Z,46.56
2022-09-23T12:54:31.736Z,46.86
2022-09-23T12:57:13.427Z,44.89
2022-09-23T12:59:27.572Z,46.36
2022-09-23T13:01:38.326Z,46.05
2022-09-23T13:03:49.517Z,44.23
2022-09-23T13:05:58.551Z,45.66
2022-09-23T13:08:06.548Z,46.33
2022-09-23T13:10:18.300Z,46.27
2022-09-23T13:12:29.015Z,45.45
2022-09-23T13:14:35.098Z,45.08
2022-09-23T13:16:44.074Z,44.61
2022-09-23T13:18:57.876Z,44.84
2022-09-23T13:21:15.145Z,45.29
2022-09-23T13:23:25.688Z,45.15
2022-09-23T13:25:31.948Z,44.86
2022-09-23T13:27:37.595Z,44.64
2022-09-23T13:29:47.172Z,44.95
2022-09-23T13:31:52.499Z,44.58
2022-09-23T13:34:04.165Z,44.20
2022-09-23T13:36:14.598Z,44.95
2022-09-23T13:38:23.073Z,45.61
2022-09-23T13:40:30.918Z,45.53
2022-09-23T13:42:37.879Z,45.47
2022-09-23T13:44:42.599Z,44.17
2022-09-23T13:46:49.871Z,44.29
2022-09-23T13:48:56.060Z,44.17
2022-09-23T13:51:06.834Z,43.60
2022-09-23T13:53:18.067Z,43.24
2022-09-23T13:55:32.029Z,43.61
2022-09-23T13:57:36.690Z,43.75
2022-09-23T13:59:43.624Z,44.42
2022-09-23T14:01:48.699Z,43.97
2022-09-23T14:03:53.404Z,44.70
2022-09-23T14:06:00.484Z,44.83
2022-09-23T14:08:05.311Z,44.25
2022-09-23T14:10:20.546Z,43.59
2022-09-23T14:12:25.391Z,44.26
2022-09-23T14:14:31.044Z,43.88
2022-09-23T14:16:38.401Z,44.12
2022-09-23T14:18:48.061Z,44.10
2022-09-23T14:20:52.849Z,44.13
2022-09-23T14:23:11.626Z,44.66
2022-09-23T14:25:17.892Z,44.77
2022-09-23T14:27:29.891Z,44.61
2022-09-23T14:29:37.163Z,44.03
2022-09-23T14:31:43.157Z,44.82
2022-09-23T14:33:47.840Z,45.22
2022-09-23T14:35:55.368Z,45.59
2022-09-23T14:38:00.148Z,45.41
2022-09-23T14:40:09.702Z,44.92
2022-09-23T14:42:14.899Z,44.57
2022-09-23T14:44:24.055Z,44.20
2022-09-23T14:46:30.740Z,44.69
2022-09-23T14:48:36.522Z,44.85
2022-09-23T14:50:48.296Z,44.79
2022-09-23T14:52:53.417Z,45.00
2022-09-23T14:54:59.198Z,45.22
2022-09-23T14:57:18.438Z,45.51
2022-09-23T14:59:28.369Z,45.28
2022-09-23T15:01:38.421Z,43.83
2022-09-23T15:03:49.352Z,44.29
2022-09-23T15:05:59.740Z,44.45
2022-09-23T15:08:05.105Z,45.23
2022-09-23T15:10:16.261Z,45.41
2022-09-23T15:12:23.469Z,45.47
2022-09-23T15:14:38.454Z,45.57
2022-09-23T15:16:43.873Z,45.43
2022-09-23T15:18:56.214Z,45.58
2022-09-23T15:21:07.301Z,45.83
2022-09-23T15:23:34.742Z,45.62
2022-09-23T15:25:41.786Z,45.33
2022-09-23T15:28:02.955Z,45.19
2022-09-23T15:30:17.833Z,45.47
2022-09-23T15:32:22.580Z,45.56
2022-09-23T15:34:27.208Z,45.30
2022-09-23T15:36:31.946Z,45.57
2022-09-23T15:38:41.312Z,45.42
2022-09-23T15:40:47.566Z,45.69
2022-09-23T15:42:55.522Z,45.58
2022-09-23T15:45:00.251Z,45.38
2022-09-23T15:47:05.730Z,45.76
2022-09-23T15:49:17.132Z,46.07
2022-09-23T15:51:22.292Z,46.39
2022-09-23T15:53:28.297Z,45.99
2022-09-23T15:55:34.438Z,46.30
2022-09-23T15:57:39.334Z,46.17
2022-09-23T15:59:44.033Z,46.72
2022-09-23T16:01:51.843Z,46.88
2022-09-23T16:03:56.889Z,46.75
2022-09-23T16:06:02.562Z,47.29
2022-09-23T16:08:09.686Z,47.53
2022-09-23T16:10:14.515Z,47.58
2022-09-23T16:12:19.208Z,47.70
2022-09-23T16:14:24.711Z,48.02
2022-09-23T16:16:30.142Z,47.94
2022-09-23T16:18:34.913Z,47.81
2022-09-23T16:20:41.810Z,47.91
2022-09-23T16:22:52.255Z,48.10
2022-09-23T16:24:57.049Z,48.26
2022-09-23T16:27:04.171Z,48.30
2022-09-23T16:29:10.390Z,48.43
2022-09-23T16:31:16.081Z,48.64
2022-09-23T16:33:20.856Z,48.66
2022-09-23T16:35:27.572Z,48.71
2022-09-23T16:37:35.237Z,49.02
2022-09-23T16:39:40.108Z,48.93
2022-09-23T16:41:44.804Z,49.04
2022-09-23T16:43:49.623Z,49.49
2022-09-23T16:45:54.376Z,49.52
2022-09-23T16:47:59.093Z,49.42
2022-09-23T16:50:04.115Z,49.59
2022-09-23T16:52:08.845Z,49.43
2022-09-23T16:54:14.489Z,49.67
2022-09-23T16:56:25.696Z,50.00
2022-09-23T16:58:32.852Z,50.24
2022-09-23T17:00:37.572Z,50.26
2022-09-23T17:02:42.348Z,50.30
2022-09-23T17:04:46.972Z,50.23
2022-09-23T17:06:52.747Z,50.44
2022-09-23T17:08:57.363Z,50.36
2022-09-23T17:11:02.351Z,50.47
2022-09-23T17:13:07.032Z,50.40
2022-09-23T17:15:13.084Z,50.67
2022-09-23T17:17:17.780Z,51.02
2022-09-23T17:19:22.447Z,50.91
2022-09-23T17:21:28.262Z,50.77
2022-09-23T17:23:34.247Z,51.12
2022-09-23T17:25:38.963Z,51.10
2022-09-23T17:27:43.766Z,51.00
2022-09-23T17:29:48.467Z,51.02
2022-09-23T17:31:56.006Z,51.19
2022-09-23T17:34:00.802Z,51.35
2022-09-23T17:36:08.689Z,51.42
2022-09-23T17:38:13.380Z,51.52
2022-09-23T17:40:20.003Z,51.65
2022-09-23T17:42:24.760Z,51.54
2022-09-23T17:44:30.042Z,51.50
2022-09-23T17:46:34.670Z,51.77
2022-09-23T17:48:40.872Z,51.95
2022-09-23T17:50:53.290Z,52.05
2022-09-23T17:52:59.873Z,52.48
2022-09-23T17:55:05.265Z,52.48
2022-09-23T17:57:10.437Z,52.65
2022-09-23T17:59:15.382Z,52.95
2022-09-23T18:01:22.168Z,52.72
2022-09-23T18:03:28.212Z,52.95
2022-09-23T18:05:32.946Z,52.85
2022-09-23T18:07:37.615Z,53.36
2022-09-23T18:09:42.299Z,53.61
2022-09-23T18:11:47.489Z,53.18
2022-09-23T18:13:54.330Z,53.57
2022-09-23T18:16:04.033Z,53.65
2022-09-23T18:18:08.871Z,53.58
2022-09-23T18:20:14.093Z,53.70
2022-09-23T18:22:18.756Z,53.67
2022-09-23T18:24:32.670Z,53.57
2022-09-23T18:26:38.445Z,53.94
2022-09-23T18:28:43.611Z,54.05
2022-09-23T18:30:55.463Z,53.81
2022-09-23T18:33:00.511Z,54.32
2022-09-23T18:35:05.933Z,54.35
2022-09-23T18:37:15.604Z,54.57
2022-09-23T18:39:21.071Z,54.26
2022-09-23T18:41:25.749Z,54.26
2022-09-23T18:43:37.203Z,54.44
2022-09-23T18:45:44.313Z,54.47
2022-09-23T18:47:49.039Z,54.71
2022-09-23T18:49:53.745Z,54.41
2022-09-23T18:51:59.149Z,54.45
2022-09-23T18:54:06.541Z,54.26
2022-09-23T18:56:14.485Z,54.45
2022-09-23T18:58:19.174Z,54.25
2022-09-23T19:00:23.925Z,54.05
2022-09-23T19:02:28.662Z,54.13
2022-09-23T19:04:33.955Z,54.20
2022-09-23T19:06:39.148Z,53.81
2022-09-23T19:08:49.264Z,53.79
2022-09-23T19:10:57.815Z,53.83
2022-09-23T19:13:02.576Z,53.62
2022-09-23T19:15:08.691Z,53.81
2022-09-23T19:17:13.454Z,53.82
2022-09-23T19:19:18.544Z,53.89
2022-09-23T19:21:24.210Z,53.97
2022-09-23T19:23:30.363Z,54.01
2022-09-23T19:25:37.233Z,54.19
2022-09-23T19:27:42.083Z,54.18
2022-09-23T19:29:46.798Z,54.36
2022-09-23T19:31:51.706Z,54.43
2022-09-23T19:33:58.513Z,54.43
2022-09-23T19:36:04.222Z,54.62
2022-09-23T19:38:08.956Z,54.80
2022-09-23T19:40:14.015Z,54.93
2022-09-23T19:42:18.703Z,55.06
2022-09-23T19:44:23.798Z,55.05
2022-09-23T19:46:28.711Z,55.19
2022-09-23T19:48:33.374Z,55.30
2022-09-23T19:50:40.620Z,55.33
2022-09-23T19:52:45.372Z,55.48
2022-09-23T19:54:50.083Z,55.63
2022-09-23T19:56:54.828Z,55.61
2022-09-23T19:59:00.336Z,55.66
2022-09-23T20:01:09.382Z,55.83
2022-09-23T20:03:14.209Z,55.68
2022-09-23T20:05:20.455Z,55.68
2022-09-23T20:07:25.292Z,55.84
2022-09-23T20:09:30.052Z,55.90
2022-09-23T20:11:34.795Z,55.79
2022-09-23T20:13:39.993Z,56.00
2022-09-23T20:15:44.942Z,56.30
2022-09-23T20:17:50.706Z,56.31
2022-09-23T20:19:56.327Z,56.65
2022-09-23T20:22:01.037Z,56.50
2022-09-23T20:24:05.933Z,56.77
2022-09-23T20:26:10.992Z,57.00
2022-09-23T20:28:16.647Z,57.04
2022-09-23T20:30:21.712Z,56.85
2022-09-23T20:32:26.826Z,57.09
2022-09-23T20:34:31.454Z,56.96
2022-09-23T20:36:36.324Z,57.21
2022-09-23T20:38:41.306Z,57.05
2022-09-23T20:40:53.962Z,57.17
2022-09-23T20:42:58.764Z,57.11
2022-09-23T20:45:03.649Z,56.94
2022-09-23T20:47:09.145Z,57.00
2022-09-23T20:49:13.946Z,56.82
2022-09-23T20:51:19.041Z,56.73
2022-09-23T20:53:23.745Z,56.51
2022-09-23T20:55:28.416Z,56.73
2022-09-23T20:57:33.371Z,56.75
2022-09-23T20:59:38.469Z,56.72
2022-09-23T21:01:43.378Z,56.65
2022-09-23T21:03:49.639Z,56.59
2022-09-23T21:05:54.400Z,56.81
2022-09-23T21:08:02.759Z,56.72
2022-09-23T21:10:09.481Z,56.71
2022-09-23T21:12:14.132Z,56.89
2022-09-23T21:14:18.801Z,56.93
2022-09-23T21:16:24.274Z,57.10
2022-09-23T21:18:29.016Z,57.11
2022-09-23T21:20:33.683Z,57.11
2022-09-23T21:22:38.361Z,57.24
2022-09-23T21:25:25.635Z,57.33
2022-09-23T21:27:07.710Z,57.44
2022-09-23T21:29:12.598Z,57.39
2022-09-23T21:31:19.170Z,57.67
2022-09-23T21:33:23.915Z,57.59
2022-09-23T21:35:28.581Z,57.83
2022-09-23T21:37:33.288Z,57.88
2022-09-23T21:39:38.077Z,57.80
2022-09-23T21:41:42.779Z,57.81
2022-09-23T21:43:47.982Z,58.17
2022-09-23T21:45:56.276Z,58.60
2022-09-23T21:48:01.010Z,58.59
2022-09-23T21:50:07.269Z,58.45
2022-09-23T21:52:12.092Z,58.64
2022-09-23T21:54:18.048Z,58.60
2022-09-23T21:56:24.535Z,58.73
2022-09-23T21:58:29.306Z,58.90
2022-09-23T22:00:34.064Z,59.13
2022-09-23T22:02:38.770Z,59.22
2022-09-23T22:04:43.550Z,59.22
2022-09-23T22:06:48.489Z,59.55
2022-09-23T22:08:55.746Z,59.76
2022-09-23T22:11:01.439Z,59.83
2022-09-23T22:13:10.563Z,60.12
2022-09-23T22:15:17.806Z,60.52
2022-09-23T22:17:22.494Z,60.69
2022-09-23T22:19:29.819Z,61.07
2022-09-23T22:21:35.824Z,61.38
2022-09-23T22:23:40.482Z,61.71
2022-09-23T22:25:45.155Z,61.62
2022-09-23T22:27:52.779Z,61.99
2022-09-23T22:29:57.465Z,62.38
2022-09-23T22:32:05.248Z,62.19
2022-09-23T22:34:25.497Z,62.55
2022-09-23T22:36:35.192Z,62.90
2022-09-23T22:38:39.970Z,63.45
2022-09-23T22:40:45.543Z,63.57
2022-09-23T22:42:50.333Z,64.06
2022-09-23T22:44:55.025Z,64.33
2022-09-23T22:47:00.231Z,64.67
2022-09-23T22:49:04.906Z,64.89
2022-09-23T22:51:09.870Z,65.23
2022-09-23T22:53:14.466Z,65.58
2022-09-23T22:55:19.233Z,66.01
2022-09-23T22:57:23.894Z,66.30
2022-09-23T22:59:28.586Z,66.59
2022-09-23T23:01:33.892Z,66.88
2022-09-23T23:03:39.404Z,67.84
2022-09-23T23:05:44.069Z,68.23
2022-09-23T23:07:51.004Z,68.45
2022-09-23T23:09:55.924Z,68.73
2022-09-23T23:12:00.762Z,68.90
2022-09-23T23:14:05.806Z,69.22
2022-09-23T23:16:12.503Z,69.26
2022-09-23T23:18:17.319Z,69.47
2022-09-23T23:20:22.013Z,69.39
2022-09-23T23:22:28.838Z,69.51
2022-09-23T23:24:33.505Z,69.87
2022-09-23T23:26:40.500Z,69.88
2022-09-23T23:28:45.949Z,69.84
2022-09-23T23:30:50.582Z,70.04
2022-09-23T23:32:55.171Z,69.95
2022-09-23T23:34:59.757Z,70.20
2022-09-23T23:37:04.392Z,70.00
2022-09-23T23:39:09.609Z,70.35
2022-09-23T23:41:16.742Z,70.16
2022-09-23T23:43:21.599Z,70.01
2022-09-23T23:45:26.295Z,70.22
2022-09-23T23:47:30.983Z,70.16
2022-09-23T23:49:35.590Z,70.35
2022-09-23T23:51:40.190Z,70.42
2022-09-23T23:53:45.229Z,70.15
2022-09-23T23:55:50.296Z,70.59
2022-09-23T23:57:54.922Z,70.51
2022-09-23T23:59:59.585Z,70.93
